Time;durP1;ratioP1;P1;durP2;ratioP2;P2;SDS_P1;SDS_P2;PMS_P1;PMS_P2;Temp;Humidity;BMP_temperature;BMP_pressure;BME280_temperature;BME280_humidity;BME280_pressure;Samples;Min_cycle;Max_cycle;Signal;HPM_P1;HPM_P2
2020/12/29 00:00:07;;;;;;;;;;;8.30;85.10;;;;;;2596246;22;19927;-72
2020/12/29 00:01:09;;;;;;;;;;;8.30;85.60;;;;;;2596096;22;19919;-72
2020/12/29 00:02:11;;;;;;;;;;;8.20;84.90;;;;;;2595894;22;20473;-72
2020/12/29 00:03:12;;;;;;;;;;;8.30;84.70;;;;;;2596046;22;19920;-72
2020/12/29 00:04:15;;;;;;;;;;;8.30;84.10;;;;;;2596017;22;19930;-72
2020/12/29 00:05:17;;;;;;;;;;;8.20;84.40;;;;;;2596230;22;19926;-73
2020/12/29 00:06:18;;;;;;;;;;;8.30;84.20;;;;;;2596461;22;19923;-72
2020/12/29 00:07:20;;;;;;;;;;;8.20;84.00;;;;;;2595947;22;19919;-72
2020/12/29 00:08:21;;;;;;;;;;;8.10;83.40;;;;;;2596046;22;19919;-78
2020/12/29 00:09:24;;;;;;;;;;;8.00;84.30;;;;;;2596069;22;19925;-71
2020/12/29 00:10:25;;;;;;;;;;;8.10;85.50;;;;;;2596466;22;19926;-71
2020/12/29 00:11:26;;;;;;;;;;;8.00;85.70;;;;;;2596266;22;19927;-72
2020/12/29 00:12:28;;;;;;;;;;;8.00;86.10;;;;;;2596006;22;19927;-72
2020/12/29 00:13:29;;;;;;;;;;;8.00;85.90;;;;;;2596027;22;19931;-72
2020/12/29 00:14:31;;;;;;;;;;;7.90;84.80;;;;;;2596143;22;19919;-72
2020/12/29 00:15:32;;;;;;;;;;;7.90;85.00;;;;;;2595873;22;20269;-71
2020/12/29 00:16:34;;;;;;;;;;;7.90;85.30;;;;;;2596075;22;20381;-72
2020/12/29 00:17:35;;;;;;;;;;;7.90;85.00;;;;;;2595938;22;20226;-72
2020/12/29 00:18:36;;;;;;;;;;;7.90;86.90;;;;;;2596131;22;20233;-71
2020/12/29 00:19:38;;;;;;;;;;;7.80;85.40;;;;;;2595775;22;20272;-72
2020/12/29 00:20:40;;;;;;;;;;;7.90;87.10;;;;;;2596212;22;19919;-72
2020/12/29 00:21:42;;;;;;;;;;;7.90;86.00;;;;;;2596009;22;19919;-71
2020/12/29 00:22:43;;;;;;;;;;;7.90;86.00;;;;;;2595894;22;20246;-71
2020/12/29 00:23:45;;;;;;;;;;;7.90;86.70;;;;;;2596195;22;19927;-71
2020/12/29 00:24:47;;;;;;;;;;;8.00;86.40;;;;;;2595921;22;20356;-72
2020/12/29 00:25:48;;;;;;;;;;;8.00;86.20;;;;;;2595919;22;20315;-71
2020/12/29 00:26:49;;;;;;;;;;;8.10;86.00;;;;;;2596133;22;19926;-71
2020/12/29 00:27:51;;;;;;;;;;;8.10;85.80;;;;;;2596046;22;20263;-71
2020/12/29 00:28:52;;;;;;;;;;;8.10;85.90;;;;;;2596112;22;20499;-72
2020/12/29 00:29:54;;;;;;;;;;;8.00;84.90;;;;;;2596206;22;19919;-72
2020/12/29 00:30:55;;;;;;;;;;;8.00;85.20;;;;;;2596317;22;19926;-71
2020/12/29 00:31:56;;;;;;;;;;;7.90;84.90;;;;;;2595980;22;19919;-72
2020/12/29 00:32:58;;;;;;;;;;;7.90;84.90;;;;;;2596004;22;19930;-72
2020/12/29 00:33:59;;;;;;;;;;;7.90;85.70;;;;;;2596121;22;19919;-72
2020/12/29 00:35:01;;;;;;;;;;;7.90;86.40;;;;;;2596119;22;19923;-72
2020/12/29 00:36:04;;;;;;;;;;;7.80;85.10;;;;;;2596188;22;19930;-72
2020/12/29 00:37:06;;;;;;;;;;;7.90;86.70;;;;;;2595914;22;20321;-72
2020/12/29 00:38:07;;;;;;;;;;;7.90;85.40;;;;;;2596302;22;19919;-71
2020/12/29 00:39:08;;;;;;;;;;;8.10;86.60;;;;;;2596080;22;19919;-74
2020/12/29 00:40:11;;;;;;;;;;;8.10;85.40;;;;;;2596452;22;19920;-73
2020/12/29 00:41:13;;;;;;;;;;;8.10;85.40;;;;;;2596247;22;19919;-72
2020/12/29 00:42:14;;;;;;;;;;;8.00;84.00;;;;;;2595986;22;19923;-71
2020/12/29 00:43:16;;;;;;;;;;;8.10;85.70;;;;;;2595881;22;19919;-72
2020/12/29 00:44:17;;;;;;;;;;;8.00;84.40;;;;;;2596097;22;20332;-72
2020/12/29 00:45:19;;;;;;;;;;;7.90;84.70;;;;;;2595948;22;19944;-72
2020/12/29 00:46:21;;;;;;;;;;;7.90;84.50;;;;;;2596116;22;20174;-72
2020/12/29 00:47:22;;;;;;;;;;;7.80;85.30;;;;;;2596015;22;20333;-72
2020/12/29 00:48:24;;;;;;;;;;;7.90;86.90;;;;;;2596401;22;19923;-72
2020/12/29 00:49:25;;;;;;;;;;;7.90;86.00;;;;;;2596244;22;19950;-71
2020/12/29 00:50:27;;;;;;;;;;;8.00;86.40;;;;;;2595867;22;19930;-72
2020/12/29 00:51:29;;;;;;;;;;;7.90;85.10;;;;;;2595871;22;20225;-71
2020/12/29 00:52:30;;;;;;;;;;;7.90;84.90;;;;;;2596397;22;19919;-72
2020/12/29 00:53:32;;;;;;;;;;;8.00;85.60;;;;;;2595993;22;19926;-71
2020/12/29 00:54:33;;;;;;;;;;;7.90;84.60;;;;;;2582811;23;19927;-71
2020/12/29 00:55:35;;;;;;;;;;;7.90;84.70;;;;;;2582559;22;19920;-72
2020/12/29 00:56:36;;;;;;;;;;;7.80;85.60;;;;;;2582833;23;19927;-72
2020/12/29 00:57:37;;;;;;;;;;;8.00;86.70;;;;;;2571153;23;20242;-72
2020/12/29 00:58:39;;;;;;;;;;;7.90;85.80;;;;;;2582860;22;19928;-72
2020/12/29 00:59:40;;;;;;;;;;;7.80;85.00;;;;;;2595763;22;20214;-72
2020/12/29 01:00:42;;;;;;;;;;;7.80;85.00;;;;;;2596024;22;19949;-72
2020/12/29 01:01:43;;;;;;;;;;;7.80;84.70;;;;;;2596129;22;19919;-72
2020/12/29 01:02:45;;;;;;;;;;;7.80;85.70;;;;;;2595609;22;19926;-72
2020/12/29 01:03:46;;;;;;;;;;;7.70;83.90;;;;;;2596068;22;19942;-72
2020/12/29 01:04:48;;;;;;;;;;;7.70;86.20;;;;;;2596185;22;19991;-71
2020/12/29 01:05:49;;;;;;;;;;;7.80;86.50;;;;;;2596062;22;20093;-72
2020/12/29 01:06:52;;;;;;;;;;;7.80;86.80;;;;;;2595990;22;19926;-74
2020/12/29 01:07:53;;;;;;;;;;;7.90;85.50;;;;;;2596021;22;20313;-71
2020/12/29 01:08:54;;;;;;;;;;;7.90;86.10;;;;;;2596020;22;19919;-71
2020/12/29 01:10:06;;;;;;;;;;;7.90;86.20;;;;;;2582263;23;20377;-71
2020/12/29 01:11:07;;;;;;;;;;;7.80;84.00;;;;;;2585165;22;19919;-72
2020/12/29 01:12:27;;;;;;;;;;;7.70;85.70;;;;;;2596066;22;20248;-71
2020/12/29 01:13:29;;;;;;;;;;;7.60;84.40;;;;;;2595975;22;19919;-73
2020/12/29 01:14:30;;;;;;;;;;;7.50;84.70;;;;;;2596005;22;19919;-72
2020/12/29 01:15:32;;;;;;;;;;;7.50;84.30;;;;;;2595947;22;20093;-72
2020/12/29 01:16:33;;;;;;;;;;;7.40;85.10;;;;;;2595815;22;19919;-72
2020/12/29 01:17:34;;;;;;;;;;;7.30;85.30;;;;;;2595866;22;19923;-72
2020/12/29 01:18:37;;;;;;;;;;;7.40;87.60;;;;;;2595813;22;20230;-72
2020/12/29 01:19:38;;;;;;;;;;;7.40;85.50;;;;;;2595828;22;19919;-73
2020/12/29 01:20:40;;;;;;;;;;;7.30;84.90;;;;;;2595662;22;20225;-71
2020/12/29 01:21:42;;;;;;;;;;;7.40;86.90;;;;;;2596066;22;19923;-72
2020/12/29 01:22:44;;;;;;;;;;;7.50;86.30;;;;;;2596016;22;19927;-72
2020/12/29 01:23:45;;;;;;;;;;;7.50;86.90;;;;;;2595998;22;20332;-73
2020/12/29 01:24:47;;;;;;;;;;;7.50;85.90;;;;;;2596014;22;20245;-72
2020/12/29 01:25:48;;;;;;;;;;;7.50;87.60;;;;;;2596207;22;19926;-72
2020/12/29 01:26:50;;;;;;;;;;;7.60;86.10;;;;;;2583303;23;19923;-72
2020/12/29 01:27:51;;;;;;;;;;;7.70;85.80;;;;;;2583692;22;19926;-72
2020/12/29 01:28:53;;;;;;;;;;;7.50;84.70;;;;;;2597402;22;19919;-73
2020/12/29 01:29:54;;;;;;;;;;;7.50;85.80;;;;;;2597021;22;19919;-72
2020/12/29 01:30:55;;;;;;;;;;;7.50;85.00;;;;;;2597063;22;19920;-72
2020/12/29 01:31:57;;;;;;;;;;;7.60;86.70;;;;;;2597064;22;19919;-72
2020/12/29 01:32:59;;;;;;;;;;;7.50;85.80;;;;;;2597426;22;19919;-73
2020/12/29 01:34:00;;;;;;;;;;;7.50;86.20;;;;;;2597504;22;19919;-72
2020/12/29 01:35:02;;;;;;;;;;;7.50;86.70;;;;;;2597351;22;19927;-72
2020/12/29 01:36:03;;;;;;;;;;;7.60;86.10;;;;;;2596059;22;20276;-72
2020/12/29 01:37:05;;;;;;;;;;;7.50;85.60;;;;;;2595764;22;19923;-72
2020/12/29 01:38:07;;;;;;;;;;;7.60;86.90;;;;;;2595697;22;20328;-72
2020/12/29 01:39:09;;;;;;;;;;;7.80;87.00;;;;;;2595722;22;19954;-74
2020/12/29 01:40:11;;;;;;;;;;;7.90;86.50;;;;;;2595728;22;19923;-71
2020/12/29 01:41:12;;;;;;;;;;;8.00;84.10;;;;;;2595701;22;19947;-72
2020/12/29 01:42:14;;;;;;;;;;;7.90;84.00;;;;;;2595787;22;20348;-73
2020/12/29 01:43:15;;;;;;;;;;;7.80;85.70;;;;;;2595780;22;19923;-72
2020/12/29 01:44:18;;;;;;;;;;;7.80;84.60;;;;;;2595596;22;19926;-71
2020/12/29 01:45:20;;;;;;;;;;;7.70;84.70;;;;;;2595682;22;19919;-72
2020/12/29 01:46:22;;;;;;;;;;;7.60;83.30;;;;;;2595530;22;19920;-72
2020/12/29 01:47:24;;;;;;;;;;;7.60;85.50;;;;;;2595743;22;19930;-72
2020/12/29 01:48:30;;;;;;;;;;;7.60;86.00;;;;;;2596204;22;19919;-72
2020/12/29 01:49:31;;;;;;;;;;;7.60;84.90;;;;;;2595779;22;19926;-71
2020/12/29 01:50:33;;;;;;;;;;;7.60;86.20;;;;;;2595704;22;20347;-73
2020/12/29 01:51:34;;;;;;;;;;;7.80;86.00;;;;;;2582392;23;19920;-72
2020/12/29 01:52:36;;;;;;;;;;;7.70;85.50;;;;;;2582610;22;19923;-72
2020/12/29 01:53:39;;;;;;;;;;;7.80;85.90;;;;;;2582390;23;19927;-71
2020/12/29 01:54:41;;;;;;;;;;;7.70;86.70;;;;;;2582296;22;19923;-72
2020/12/29 01:55:42;;;;;;;;;;;7.90;85.80;;;;;;2595550;22;19926;-72
2020/12/29 01:56:44;;;;;;;;;;;7.90;85.10;;;;;;2595878;22;19926;-72
2020/12/29 01:57:45;;;;;;;;;;;7.80;84.30;;;;;;2595665;22;19919;-71
2020/12/29 01:58:47;;;;;;;;;;;7.70;84.90;;;;;;2595472;22;20265;-72
2020/12/29 01:59:50;;;;;;;;;;;7.70;85.40;;;;;;2596027;22;19920;-72
2020/12/29 02:00:53;;;;;;;;;;;7.70;85.60;;;;;;2595681;22;19920;-73
2020/12/29 02:01:54;;;;;;;;;;;7.60;84.00;;;;;;2583287;23;19942;-72
2020/12/29 02:02:56;;;;;;;;;;;7.60;84.10;;;;;;2571741;23;19931;-72
2020/12/29 02:03:57;;;;;;;;;;;7.50;83.90;;;;;;2583614;23;19919;-71
2020/12/29 02:04:59;;;;;;;;;;;7.50;86.30;;;;;;2572053;23;20183;-73
2020/12/29 02:06:00;;;;;;;;;;;7.50;85.30;;;;;;2571089;23;19932;-72
2020/12/29 02:07:01;;;;;;;;;;;7.40;84.40;;;;;;2582969;22;19931;-71
2020/12/29 02:08:03;;;;;;;;;;;7.50;87.80;;;;;;2596087;22;20357;-72
2020/12/29 02:09:06;;;;;;;;;;;7.50;86.00;;;;;;2597698;22;19919;-71
2020/12/29 02:10:07;;;;;;;;;;;7.60;86.50;;;;;;2597987;22;19919;-72
2020/12/29 02:11:09;;;;;;;;;;;7.70;85.40;;;;;;2597518;22;20264;-72
2020/12/29 02:12:20;;;;;;;;;;;7.60;83.60;;;;;;2597690;22;19934;-73
2020/12/29 02:13:22;;;;;;;;;;;7.60;85.50;;;;;;2597033;22;19919;-72
2020/12/29 02:14:23;;;;;;;;;;;7.60;84.10;;;;;;2583940;23;19920;-72
2020/12/29 02:15:25;;;;;;;;;;;7.60;85.40;;;;;;2582510;22;19923;-72
2020/12/29 02:16:26;;;;;;;;;;;7.50;84.60;;;;;;2595640;22;19919;-71
2020/12/29 02:17:27;;;;;;;;;;;7.50;85.00;;;;;;2595716;22;19919;-72
2020/12/29 02:18:29;;;;;;;;;;;7.40;85.30;;;;;;2595527;22;19926;-73
2020/12/29 02:19:30;;;;;;;;;;;7.60;86.30;;;;;;2595560;22;20252;-72
2020/12/29 02:20:32;;;;;;;;;;;7.50;85.80;;;;;;2595735;22;19926;-72
2020/12/29 02:21:33;;;;;;;;;;;7.50;87.00;;;;;;2595570;22;19919;-72
2020/12/29 02:22:36;;;;;;;;;;;7.50;85.80;;;;;;2595260;22;19923;-71
2020/12/29 02:23:37;;;;;;;;;;;7.50;84.30;;;;;;2595673;22;19926;-72
2020/12/29 02:24:39;;;;;;;;;;;7.50;86.00;;;;;;2595696;22;19923;-72
2020/12/29 02:25:40;;;;;;;;;;;7.50;85.80;;;;;;2595442;22;19919;-72
2020/12/29 02:26:41;;;;;;;;;;;7.40;85.60;;;;;;2582045;23;19923;-72
2020/12/29 02:27:44;;;;;;;;;;;7.40;85.60;;;;;;2569766;23;19920;-72
2020/12/29 02:28:46;;;;;;;;;;;7.40;85.80;;;;;;2582965;22;20194;-72
2020/12/29 02:29:47;;;;;;;;;;;7.40;86.90;;;;;;2582224;23;19966;-72
2020/12/29 02:30:49;;;;;;;;;;;7.30;86.10;;;;;;2569893;23;19974;-72
2020/12/29 02:31:50;;;;;;;;;;;7.40;87.30;;;;;;2582016;23;19975;-72
2020/12/29 02:32:52;;;;;;;;;;;7.40;87.20;;;;;;2582434;22;19926;-72
2020/12/29 02:33:53;;;;;;;;;;;7.40;86.90;;;;;;2595599;22;19920;-73
2020/12/29 02:34:55;;;;;;;;;;;7.30;86.40;;;;;;2595289;22;19928;-72
2020/12/29 02:35:56;;;;;;;;;;;7.30;86.10;;;;;;2595755;22;19919;-72
2020/12/29 02:36:58;;;;;;;;;;;7.30;86.30;;;;;;2595657;22;19930;-72
2020/12/29 02:38:00;;;;;;;;;;;7.30;86.40;;;;;;2595667;22;19923;-72
2020/12/29 02:39:01;;;;;;;;;;;7.30;87.30;;;;;;2595438;22;19923;-72
2020/12/29 02:40:03;;;;;;;;;;;7.30;87.60;;;;;;2595570;22;19919;-72
2020/12/29 02:41:04;;;;;;;;;;;7.30;87.10;;;;;;2595516;22;19935;-71
2020/12/29 02:42:06;;;;;;;;;;;7.30;86.10;;;;;;2595560;22;19920;-71
2020/12/29 02:43:08;;;;;;;;;;;7.20;86.60;;;;;;2595351;22;19919;-72
2020/12/29 02:44:13;;;;;;;;;;;7.40;87.20;;;;;;2595638;22;19919;-72
2020/12/29 02:45:15;;;;;;;;;;;7.30;87.90;;;;;;2595483;22;19919;-72
2020/12/29 02:46:16;;;;;;;;;;;7.40;87.40;;;;;;2595714;22;19926;-72
2020/12/29 02:47:18;;;;;;;;;;;7.40;86.60;;;;;;2595641;22;19926;-72
2020/12/29 02:48:19;;;;;;;;;;;7.40;87.50;;;;;;2595342;22;19928;-72
2020/12/29 02:49:20;;;;;;;;;;;7.40;86.70;;;;;;2595563;22;19919;-71
2020/12/29 02:50:22;;;;;;;;;;;7.40;87.60;;;;;;2595605;22;19919;-71
2020/12/29 02:51:23;;;;;;;;;;;7.40;87.40;;;;;;2595719;22;19927;-72
2020/12/29 02:52:25;;;;;;;;;;;7.40;87.40;;;;;;2595252;22;19923;-72
2020/12/29 02:53:27;;;;;;;;;;;7.30;85.30;;;;;;2595623;22;19926;-72
2020/12/29 02:54:28;;;;;;;;;;;7.30;86.40;;;;;;2595570;22;20444;-72
2020/12/29 02:55:30;;;;;;;;;;;7.30;87.30;;;;;;2595299;22;19919;-71
2020/12/29 02:56:31;;;;;;;;;;;7.20;86.30;;;;;;2595602;22;19926;-73
2020/12/29 02:57:33;;;;;;;;;;;7.20;86.50;;;;;;2582070;23;19920;-72
2020/12/29 02:58:34;;;;;;;;;;;7.20;87.60;;;;;;2582193;22;19927;-73
2020/12/29 02:59:35;;;;;;;;;;;7.20;86.40;;;;;;2595699;22;19932;-72
2020/12/29 03:00:37;;;;;;;;;;;7.30;87.70;;;;;;2595526;22;19919;-72
2020/12/29 03:01:38;;;;;;;;;;;7.40;86.70;;;;;;2595255;22;19919;-72
2020/12/29 03:02:39;;;;;;;;;;;7.30;85.80;;;;;;2595418;22;19945;-72
2020/12/29 03:03:41;;;;;;;;;;;7.30;86.50;;;;;;2595688;22;19919;-72
2020/12/29 03:04:42;;;;;;;;;;;7.20;85.60;;;;;;2595517;22;20375;-72
2020/12/29 03:05:44;;;;;;;;;;;7.30;86.80;;;;;;2581849;23;20389;-71
2020/12/29 03:06:45;;;;;;;;;;;7.30;86.60;;;;;;2582194;22;19923;-72
2020/12/29 03:07:47;;;;;;;;;;;7.30;87.60;;;;;;2595543;22;19977;-73
2020/12/29 03:08:49;;;;;;;;;;;7.40;87.30;;;;;;2595247;22;19926;-74
2020/12/29 03:09:50;;;;;;;;;;;7.30;86.70;;;;;;2595338;22;19919;-72
2020/12/29 03:10:52;;;;;;;;;;;7.30;85.80;;;;;;2595320;22;20230;-72
2020/12/29 03:11:53;;;;;;;;;;;7.20;85.60;;;;;;2595675;22;19920;-71
2020/12/29 03:12:55;;;;;;;;;;;7.20;86.20;;;;;;2595544;22;19923;-72
2020/12/29 03:13:57;;;;;;;;;;;7.20;86.80;;;;;;2595461;22;19919;-72
2020/12/29 03:14:58;;;;;;;;;;;7.30;87.60;;;;;;2595373;22;19919;-73
2020/12/29 03:15:59;;;;;;;;;;;7.30;87.00;;;;;;2595464;22;19919;-72
2020/12/29 03:17:01;;;;;;;;;;;7.30;86.80;;;;;;2595409;22;19930;-73
2020/12/29 03:18:02;;;;;;;;;;;7.30;87.20;;;;;;2595427;22;19920;-71
2020/12/29 03:19:04;;;;;;;;;;;7.20;86.60;;;;;;2582054;23;19927;-71
2020/12/29 03:20:06;;;;;;;;;;;7.20;87.00;;;;;;2569690;23;19946;-73
2020/12/29 03:21:08;;;;;;;;;;;7.20;86.50;;;;;;2582130;23;19943;-71
2020/12/29 03:22:09;;;;;;;;;;;7.20;89.00;;;;;;2582177;22;19920;-73
2020/12/29 03:23:11;;;;;;;;;;;7.30;87.70;;;;;;2595304;22;19919;-72
2020/12/29 03:24:14;;;;;;;;;;;7.30;88.00;;;;;;2595417;22;19919;-72
2020/12/29 03:25:15;;;;;;;;;;;7.20;86.10;;;;;;2595511;22;20256;-71
2020/12/29 03:26:17;;;;;;;;;;;7.20;86.90;;;;;;2595300;22;20071;-71
2020/12/29 03:27:18;;;;;;;;;;;7.20;88.30;;;;;;2595658;22;19919;-72
2020/12/29 03:28:20;;;;;;;;;;;7.20;87.90;;;;;;2595422;22;20062;-72
2020/12/29 03:29:21;;;;;;;;;;;7.20;87.00;;;;;;2595398;22;19919;-72
2020/12/29 03:30:23;;;;;;;;;;;7.20;88.40;;;;;;2595137;22;20264;-72
2020/12/29 03:31:24;;;;;;;;;;;7.30;89.60;;;;;;2595367;22;19926;-72
2020/12/29 03:32:25;;;;;;;;;;;7.40;88.30;;;;;;2595450;22;19938;-72
2020/12/29 03:33:27;;;;;;;;;;;7.40;88.00;;;;;;2595477;22;19923;-73
2020/12/29 03:34:37;;;;;;;;;;;7.30;87.30;;;;;;2595453;22;19919;-71
2020/12/29 03:35:38;;;;;;;;;;;7.30;87.30;;;;;;2595312;22;20347;-72
2020/12/29 03:36:39;;;;;;;;;;;7.40;88.30;;;;;;2595445;22;20174;-72
2020/12/29 03:37:41;;;;;;;;;;;7.40;88.10;;;;;;2595266;22;19962;-71
2020/12/29 03:38:47;;;;;;;;;;;7.40;86.90;;;;;;2595646;22;19990;-72
2020/12/29 03:39:50;;;;;;;;;;;7.50;88.30;;;;;;2582022;23;19921;-73
2020/12/29 03:40:52;;;;;;;;;;;7.40;86.20;;;;;;2582412;22;19943;-72
2020/12/29 03:41:53;;;;;;;;;;;7.40;87.20;;;;;;2595467;22;19926;-72
2020/12/29 03:42:54;;;;;;;;;;;7.50;88.60;;;;;;2595602;22;19920;-71
2020/12/29 03:43:56;;;;;;;;;;;7.50;87.60;;;;;;2595420;22;20341;-72
2020/12/29 03:44:57;;;;;;;;;;;7.50;88.00;;;;;;2596045;22;19919;-72
2020/12/29 03:45:59;;;;;;;;;;;7.40;87.20;;;;;;2595879;22;19920;-72
2020/12/29 03:47:01;;;;;;;;;;;7.40;87.00;;;;;;2595560;22;19927;-72
2020/12/29 03:48:03;;;;;;;;;;;7.40;88.00;;;;;;2595364;22;19923;-71
2020/12/29 03:49:04;;;;;;;;;;;7.40;87.30;;;;;;2595632;22;19923;-72
2020/12/29 03:50:05;;;;;;;;;;;7.50;88.30;;;;;;2595498;22;20325;-72
2020/12/29 03:51:07;;;;;;;;;;;7.50;88.00;;;;;;2595686;22;19919;-72
2020/12/29 03:52:09;;;;;;;;;;;7.60;88.50;;;;;;2595575;22;19926;-71
2020/12/29 03:53:11;;;;;;;;;;;7.50;87.50;;;;;;2595598;22;19923;-72
2020/12/29 03:54:12;;;;;;;;;;;7.50;86.60;;;;;;2595789;22;20356;-72
2020/12/29 03:55:14;;;;;;;;;;;7.50;87.90;;;;;;2595545;22;19926;-72
2020/12/29 03:56:16;;;;;;;;;;;7.40;87.40;;;;;;2595829;22;19984;-72
2020/12/29 03:57:17;;;;;;;;;;;7.50;87.60;;;;;;2595796;22;20163;-72
2020/12/29 03:58:19;;;;;;;;;;;7.40;86.50;;;;;;2595490;22;19919;-72
2020/12/29 03:59:20;;;;;;;;;;;7.50;87.70;;;;;;2595542;22;19919;-72
2020/12/29 04:00:22;;;;;;;;;;;7.50;86.90;;;;;;2595475;22;20210;-72
2020/12/29 04:01:23;;;;;;;;;;;7.50;87.30;;;;;;2595811;22;20257;-72
2020/12/29 04:02:24;;;;;;;;;;;7.50;87.20;;;;;;2595547;22;19942;-72
2020/12/29 04:03:26;;;;;;;;;;;7.50;86.70;;;;;;2595503;22;20070;-72
2020/12/29 04:04:27;;;;;;;;;;;7.50;87.00;;;;;;2595373;22;19924;-71
2020/12/29 04:05:29;;;;;;;;;;;7.50;87.00;;;;;;2595451;22;19950;-73
2020/12/29 04:06:34;;;;;;;;;;;7.50;87.10;;;;;;2582077;23;19954;-72
2020/12/29 04:07:36;;;;;;;;;;;7.50;87.90;;;;;;2570529;23;19920;-72
2020/12/29 04:08:38;;;;;;;;;;;7.50;86.40;;;;;;2582481;22;19919;-72
2020/12/29 04:09:39;;;;;;;;;;;7.50;87.20;;;;;;2595438;22;20333;-73
2020/12/29 04:10:41;;;;;;;;;;;7.40;86.80;;;;;;2595556;22;19919;-72
2020/12/29 04:11:43;;;;;;;;;;;7.50;88.40;;;;;;2582002;23;19927;-72
2020/12/29 04:12:44;;;;;;;;;;;7.50;87.50;;;;;;2581918;22;20352;-72
2020/12/29 04:13:46;;;;;;;;;;;7.50;87.70;;;;;;2595533;22;19930;-72
2020/12/29 04:14:47;;;;;;;;;;;7.60;87.30;;;;;;2595346;22;19919;-72
2020/12/29 04:15:48;;;;;;;;;;;7.60;87.40;;;;;;2595340;22;19919;-72
2020/12/29 04:16:50;;;;;;;;;;;7.50;86.20;;;;;;2595379;22;19920;-72
2020/12/29 04:17:51;;;;;;;;;;;7.70;88.40;;;;;;2595547;22;19919;-72
2020/12/29 04:18:53;;;;;;;;;;;7.80;87.90;;;;;;2596067;22;19919;-71
2020/12/29 04:19:54;;;;;;;;;;;7.80;87.40;;;;;;2595866;22;19926;-72
2020/12/29 04:20:55;;;;;;;;;;;7.80;86.70;;;;;;2596190;22;20363;-71
2020/12/29 04:21:57;;;;;;;;;;;7.70;86.90;;;;;;2596425;22;19926;-72
2020/12/29 04:22:58;;;;;;;;;;;7.80;86.90;;;;;;2596256;22;19926;-72
2020/12/29 04:23:59;;;;;;;;;;;7.70;86.20;;;;;;2595858;22;19919;-72
2020/12/29 04:25:01;;;;;;;;;;;7.70;86.20;;;;;;2582756;23;19927;-72
2020/12/29 04:26:03;;;;;;;;;;;7.70;87.40;;;;;;2570343;23;19919;-72
2020/12/29 04:27:05;;;;;;;;;;;7.80;87.30;;;;;;2582957;22;19924;-73
2020/12/29 04:28:06;;;;;;;;;;;7.80;87.60;;;;;;2582536;23;20304;-72
2020/12/29 04:29:08;;;;;;;;;;;7.80;87.10;;;;;;2570598;23;19924;-72
2020/12/29 04:30:10;;;;;;;;;;;7.80;87.10;;;;;;2583114;22;19927;-72
2020/12/29 04:31:12;;;;;;;;;;;7.60;85.90;;;;;;2582727;23;19963;-72
2020/12/29 04:32:13;;;;;;;;;;;7.70;87.30;;;;;;2582862;22;19919;-72
2020/12/29 04:33:15;;;;;;;;;;;7.70;87.10;;;;;;2596066;22;19923;-72
2020/12/29 04:34:16;;;;;;;;;;;7.70;87.20;;;;;;2596372;22;19926;-72
2020/12/29 04:35:18;;;;;;;;;;;7.70;87.60;;;;;;2582707;23;19919;-72
2020/12/29 04:36:19;;;;;;;;;;;7.60;87.20;;;;;;2582412;22;19927;-72
2020/12/29 04:37:20;;;;;;;;;;;7.60;87.40;;;;;;2596166;22;19920;-72
2020/12/29 04:38:22;;;;;;;;;;;7.60;87.10;;;;;;2596198;22;19927;-73
2020/12/29 04:39:24;;;;;;;;;;;7.70;88.50;;;;;;2596041;22;19934;-72
2020/12/29 04:40:25;;;;;;;;;;;7.80;87.60;;;;;;2595852;22;20333;-73
2020/12/29 04:41:28;;;;;;;;;;;7.80;87.00;;;;;;2595986;22;19919;-72
2020/12/29 04:42:29;;;;;;;;;;;7.80;87.90;;;;;;2595945;22;19919;-72
2020/12/29 04:43:31;;;;;;;;;;;7.80;86.60;;;;;;2597443;22;20086;-71
2020/12/29 04:44:33;;;;;;;;;;;7.80;86.20;;;;;;2599345;22;19926;-73
2020/12/29 04:45:35;;;;;;;;;;;7.80;87.50;;;;;;2598881;22;19919;-72
2020/12/29 04:46:36;;;;;;;;;;;7.80;87.60;;;;;;2585288;23;19919;-72
2020/12/29 04:47:38;;;;;;;;;;;7.80;87.50;;;;;;2583821;22;19926;-72
2020/12/29 04:48:40;;;;;;;;;;;7.90;87.00;;;;;;2597481;22;19920;-72
2020/12/29 04:49:43;;;;;;;;;;;7.90;87.30;;;;;;2597528;22;19926;-72
2020/12/29 04:50:46;;;;;;;;;;;7.90;87.10;;;;;;2597655;22;19923;-73
2020/12/29 04:51:49;;;;;;;;;;;7.90;87.00;;;;;;2597623;22;20002;-73
2020/12/29 04:52:55;;;;;;;;;;;7.90;86.80;;;;;;2596792;22;19919;-73
2020/12/29 04:53:57;;;;;;;;;;;7.90;86.90;;;;;;2597170;22;19945;-72
2020/12/29 04:54:59;;;;;;;;;;;7.90;87.60;;;;;;2597806;22;19919;-72
2020/12/29 04:56:04;;;;;;;;;;;8.00;87.80;;;;;;2595690;22;20367;-72
2020/12/29 04:57:07;;;;;;;;;;;7.90;87.10;;;;;;2595853;22;19919;-72
2020/12/29 04:58:08;;;;;;;;;;;7.90;86.20;;;;;;2596171;22;19919;-71
2020/12/29 04:59:09;;;;;;;;;;;7.90;86.70;;;;;;2596025;22;19926;-71
2020/12/29 05:00:12;;;;;;;;;;;7.90;87.50;;;;;;2596073;22;19919;-71
2020/12/29 05:01:13;;;;;;;;;;;8.00;88.10;;;;;;2595684;22;20367;-72
2020/12/29 05:02:18;;;;;;;;;;;8.10;87.40;;;;;;2582696;23;19991;-72
2020/12/29 05:03:19;;;;;;;;;;;8.10;87.30;;;;;;2583279;22;20265;-72
2020/12/29 05:04:21;;;;;;;;;;;8.20;86.30;;;;;;2595781;22;19930;-71
2020/12/29 05:05:23;;;;;;;;;;;8.30;85.30;;;;;;2596107;22;19919;-72
2020/12/29 05:06:25;;;;;;;;;;;8.20;85.70;;;;;;2596008;22;19919;-71
2020/12/29 05:07:27;;;;;;;;;;;8.10;86.10;;;;;;2596250;22;19927;-72
2020/12/29 05:08:28;;;;;;;;;;;8.20;86.20;;;;;;2595930;22;20337;-71
2020/12/29 05:09:31;;;;;;;;;;;8.10;86.20;;;;;;2596033;22;19927;-72
2020/12/29 05:10:32;;;;;;;;;;;8.10;86.40;;;;;;2595890;22;19926;-72
2020/12/29 05:11:34;;;;;;;;;;;8.10;86.40;;;;;;2595901;22;19961;-72
2020/12/29 05:12:46;;;;;;;;;;;8.10;86.80;;;;;;2596158;22;19919;-72
2020/12/29 05:13:48;;;;;;;;;;;8.10;86.60;;;;;;2595862;22;20245;-73
2020/12/29 05:14:49;;;;;;;;;;;8.10;86.50;;;;;;2596040;22;19919;-72
2020/12/29 05:15:51;;;;;;;;;;;8.10;87.20;;;;;;2596372;22;19919;-72
2020/12/29 05:16:53;;;;;;;;;;;8.10;87.30;;;;;;2596124;22;20332;-72
2020/12/29 05:17:55;;;;;;;;;;;8.10;87.30;;;;;;2596550;22;20156;-74
2020/12/29 05:18:56;;;;;;;;;;;8.10;87.50;;;;;;2595853;22;19919;-72
2020/12/29 05:19:58;;;;;;;;;;;8.20;87.50;;;;;;2595891;22;20326;-72
2020/12/29 05:20:59;;;;;;;;;;;8.20;87.70;;;;;;2595957;22;19942;-72
2020/12/29 05:22:02;;;;;;;;;;;8.30;86.80;;;;;;2582454;23;19924;-73
2020/12/29 05:23:04;;;;;;;;;;;8.30;86.90;;;;;;2582469;23;19970;-73
2020/12/29 05:24:09;;;;;;;;;;;8.30;86.30;;;;;;2582656;22;19931;-72
2020/12/29 05:25:14;;;;;;;;;;;8.20;86.50;;;;;;2595967;22;20101;-72
2020/12/29 05:26:15;;;;;;;;;;;8.40;86.90;;;;;;2582419;23;19924;-73
2020/12/29 05:27:19;;;;;;;;;;;8.50;86.60;;;;;;2582691;22;20400;-73
2020/12/29 05:28:22;;;;;;;;;;;8.50;87.00;;;;;;2595966;22;19930;-72
2020/12/29 05:29:24;;;;;;;;;;;8.70;86.30;;;;;;2582205;23;19919;-72
2020/12/29 05:30:28;;;;;;;;;;;8.60;85.70;;;;;;2570252;23;19921;-72
2020/12/29 05:31:30;;;;;;;;;;;8.60;86.10;;;;;;2583609;22;19920;-72
2020/12/29 05:32:35;;;;;;;;;;;8.60;85.80;;;;;;2596017;22;20245;-72
2020/12/29 05:33:37;;;;;;;;;;;8.50;85.90;;;;;;2596242;22;19923;-72
2020/12/29 05:34:38;;;;;;;;;;;8.50;86.50;;;;;;2595953;22;19919;-72
2020/12/29 05:35:40;;;;;;;;;;;8.50;86.00;;;;;;2596017;22;19919;-71
2020/12/29 05:36:43;;;;;;;;;;;8.50;85.10;;;;;;2596088;22;19935;-72
2020/12/29 05:37:45;;;;;;;;;;;8.50;85.50;;;;;;2595830;22;19926;-72
2020/12/29 05:38:46;;;;;;;;;;;8.40;85.70;;;;;;2596120;22;19926;-72
2020/12/29 05:39:47;;;;;;;;;;;8.40;86.30;;;;;;2596057;22;19920;-72
2020/12/29 05:40:49;;;;;;;;;;;8.40;86.30;;;;;;2595814;22;19972;-72
2020/12/29 05:41:51;;;;;;;;;;;8.40;87.00;;;;;;2595971;22;19926;-72
2020/12/29 05:42:53;;;;;;;;;;;8.40;86.40;;;;;;2595763;22;19926;-72
2020/12/29 05:44:00;;;;;;;;;;;8.30;86.30;;;;;;2596243;22;19967;-72
2020/12/29 05:45:01;;;;;;;;;;;8.30;86.00;;;;;;2596931;22;20214;-72
2020/12/29 05:46:06;;;;;;;;;;;8.30;86.60;;;;;;2598912;22;20353;-72
2020/12/29 05:47:11;;;;;;;;;;;8.30;87.00;;;;;;2598531;22;19919;-72
2020/12/29 05:48:13;;;;;;;;;;;8.30;86.50;;;;;;2598777;22;20272;-72
2020/12/29 05:49:17;;;;;;;;;;;8.30;86.20;;;;;;2598816;22;19930;-73
2020/12/29 05:50:19;;;;;;;;;;;8.20;86.40;;;;;;2598394;22;20143;-74
2020/12/29 05:51:22;;;;;;;;;;;8.20;86.30;;;;;;2598423;22;19919;-72
2020/12/29 05:52:24;;;;;;;;;;;8.20;86.80;;;;;;2598725;22;19919;-72
2020/12/29 05:53:26;;;;;;;;;;;8.30;86.60;;;;;;2599138;22;19932;-73
2020/12/29 05:54:28;;;;;;;;;;;8.20;86.50;;;;;;2598834;22;19930;-72
2020/12/29 05:55:30;;;;;;;;;;;8.20;86.40;;;;;;2598246;22;19950;-73
2020/12/29 05:56:32;;;;;;;;;;;8.30;86.60;;;;;;2598757;22;19927;-73
2020/12/29 05:57:34;;;;;;;;;;;8.30;86.90;;;;;;2598635;22;19919;-73
2020/12/29 05:58:35;;;;;;;;;;;8.30;87.00;;;;;;2598606;22;20365;-73
2020/12/29 05:59:38;;;;;;;;;;;8.30;86.50;;;;;;2598663;22;19926;-72
2020/12/29 06:00:40;;;;;;;;;;;8.30;86.40;;;;;;2598613;22;19919;-73
2020/12/29 06:01:42;;;;;;;;;;;8.30;87.30;;;;;;2598398;22;19919;-72
2020/12/29 06:02:44;;;;;;;;;;;8.30;86.90;;;;;;2597846;22;19919;-72
2020/12/29 06:03:48;;;;;;;;;;;8.40;87.90;;;;;;2598233;22;19923;-72
2020/12/29 06:04:49;;;;;;;;;;;8.40;87.20;;;;;;2598711;22;19942;-74
2020/12/29 06:05:52;;;;;;;;;;;8.30;86.50;;;;;;2597843;22;19920;-72